sensor_id;sensor_type;location;lat;lon;timestamp;P1;durP1;ratioP1;P2;durP2;ratioP2
15383;SDS011;7790;53.022;12.968;2023-02-28T00:02:13;1.50;;;1.40;;
15383;SDS011;7790;53.022;12.968;2023-02-28T00:06:14;1.53;;;1.43;;
15383;SDS011;7790;53.022;12.968;2023-02-28T00:10:17;1.63;;;1.53;;
15383;SDS011;7790;53.022;12.968;2023-02-28T00:14:20;1.50;;;1.40;;
15383;SDS011;7790;53.022;12.968;2023-02-28T00:18:21;1.60;;;1.50;;
15383;SDS011;7790;53.022;12.968;2023-02-28T00:22:22;1.60;;;1.50;;
15383;SDS011;7790;53.022;12.968;2023-02-28T00:26:23;1.63;;;1.00;;
15383;SDS011;7790;53.022;12.968;2023-02-28T00:30:24;1.73;;;1.33;;
15383;SDS011;7790;53.022;12.968;2023-02-28T00:34:24;1.90;;;1.47;;
15383;SDS011;7790;53.022;12.968;2023-02-28T00:38:27;1.60;;;1.50;;
15383;SDS011;7790;53.022;12.968;2023-02-28T00:42:27;1.83;;;1.40;;
15383;SDS011;7790;53.022;12.968;2023-02-28T00:46:28;1.70;;;1.10;;
15383;SDS011;7790;53.022;12.968;2023-02-28T00:50:32;1.40;;;1.30;;
15383;SDS011;7790;53.022;12.968;2023-02-28T00:54:32;1.50;;;1.33;;
15383;SDS011;7790;53.022;12.968;2023-02-28T00:58:33;1.57;;;1.30;;
15383;SDS011;7790;53.022;12.968;2023-02-28T01:02:34;1.43;;;1.33;;
15383;SDS011;7790;53.022;12.968;2023-02-28T01:06:35;1.13;;;1.03;;
15383;SDS011;7790;53.022;12.968;2023-02-28T01:10:36;1.37;;;1.27;;
15383;SDS011;7790;53.022;12.968;2023-02-28T01:14:40;1.40;;;1.30;;
15383;SDS011;7790;53.022;12.968;2023-02-28T01:18:40;2.27;;;1.47;;
15383;SDS011;7790;53.022;12.968;2023-02-28T01:22:41;1.17;;;1.17;;
15383;SDS011;7790;53.022;12.968;2023-02-28T01:26:42;1.37;;;1.27;;
15383;SDS011;7790;53.022;12.968;2023-02-28T01:30:46;1.30;;;1.20;;
15383;SDS011;7790;53.022;12.968;2023-02-28T01:34:48;1.50;;;1.40;;
15383;SDS011;7790;53.022;12.968;2023-02-28T01:38:49;1.30;;;1.20;;
15383;SDS011;7790;53.022;12.968;2023-02-28T01:42:50;1.33;;;1.27;;
15383;SDS011;7790;53.022;12.968;2023-02-28T01:46:53;1.40;;;1.30;;
15383;SDS011;7790;53.022;12.968;2023-02-28T01:50:54;1.27;;;1.17;;
15383;SDS011;7790;53.022;12.968;2023-02-28T01:55:00;1.20;;;1.20;;
15383;SDS011;7790;53.022;12.968;2023-02-28T01:59:04;1.43;;;1.10;;
15383;SDS011;7790;53.022;12.968;2023-02-28T02:03:06;1.53;;;1.20;;
15383;SDS011;7790;53.022;12.968;2023-02-28T02:07:09;1.33;;;1.23;;
15383;SDS011;7790;53.022;12.968;2023-02-28T02:11:11;1.07;;;1.07;;
15383;SDS011;7790;53.022;12.968;2023-02-28T02:45:48;2.17;;;1.30;;
15383;SDS011;7790;53.022;12.968;2023-02-28T02:49:56;1.33;;;1.23;;
15383;SDS011;7790;53.022;12.968;2023-02-28T02:54:02;0.90;;;0.90;;
15383;SDS011;7790;53.022;12.968;2023-02-28T02:58:21;1.10;;;1.00;;
15383;SDS011;7790;53.022;12.968;2023-02-28T03:02:26;1.00;;;1.00;;
15383;SDS011;7790;53.022;12.968;2023-02-28T03:06:34;0.90;;;0.90;;
15383;SDS011;7790;53.022;12.968;2023-02-28T03:10:37;1.10;;;1.10;;
15383;SDS011;7790;53.022;12.968;2023-02-28T03:14:48;1.20;;;1.13;;
15383;SDS011;7790;53.022;12.968;2023-02-28T03:23:27;1.10;;;1.10;;
15383;SDS011;7790;53.022;12.968;2023-02-28T03:31:53;1.00;;;1.00;;
15383;SDS011;7790;53.022;12.968;2023-02-28T03:36:04;1.13;;;1.10;;
15383;SDS011;7790;53.022;12.968;2023-02-28T03:40:20;0.90;;;0.90;;
15383;SDS011;7790;53.022;12.968;2023-02-28T03:44:25;1.00;;;1.00;;
15383;SDS011;7790;53.022;12.968;2023-02-28T03:48:40;1.27;;;1.17;;
15383;SDS011;7790;53.022;12.968;2023-02-28T03:52:56;1.20;;;1.10;;
15383;SDS011;7790;53.022;12.968;2023-02-28T03:57:06;1.27;;;1.17;;
15383;SDS011;7790;53.022;12.968;2023-02-28T04:01:24;1.20;;;1.10;;
15383;SDS011;7790;53.022;12.968;2023-02-28T04:05:26;1.23;;;1.13;;
15383;SDS011;7790;53.022;12.968;2023-02-28T04:09:27;1.30;;;1.20;;
15383;SDS011;7790;53.022;12.968;2023-02-28T04:13:28;1.20;;;1.10;;
15383;SDS011;7790;53.022;12.968;2023-02-28T04:17:29;1.00;;;1.00;;
15383;SDS011;7790;53.022;12.968;2023-02-28T04:21:31;1.00;;;0.90;;
15383;SDS011;7790;53.022;12.968;2023-02-28T04:25:33;0.97;;;0.97;;
15383;SDS011;7790;53.022;12.968;2023-02-28T04:29:34;1.10;;;1.10;;
15383;SDS011;7790;53.022;12.968;2023-02-28T04:33:35;1.00;;;1.00;;
15383;SDS011;7790;53.022;12.968;2023-02-28T04:37:36;1.10;;;1.03;;
15383;SDS011;7790;53.022;12.968;2023-02-28T04:41:37;0.90;;;0.90;;
15383;SDS011;7790;53.022;12.968;2023-02-28T04:45:38;1.23;;;0.90;;
15383;SDS011;7790;53.022;12.968;2023-02-28T04:49:38;1.07;;;1.00;;
15383;SDS011;7790;53.022;12.968;2023-02-28T04:53:41;1.27;;;1.17;;
15383;SDS011;7790;53.022;12.968;2023-02-28T04:57:43;1.20;;;1.07;;
15383;SDS011;7790;53.022;12.968;2023-02-28T05:01:47;0.97;;;0.97;;
15383;SDS011;7790;53.022;12.968;2023-02-28T05:05:49;1.03;;;1.03;;
15383;SDS011;7790;53.022;12.968;2023-02-28T05:09:50;0.90;;;0.90;;
15383;SDS011;7790;53.022;12.968;2023-02-28T05:13:51;1.30;;;1.00;;
15383;SDS011;7790;53.022;12.968;2023-02-28T05:17:53;0.77;;;0.77;;
15383;SDS011;7790;53.022;12.968;2023-02-28T05:21:54;1.87;;;1.00;;
15383;SDS011;7790;53.022;12.968;2023-02-28T05:25:55;2.00;;;0.90;;
15383;SDS011;7790;53.022;12.968;2023-02-28T05:29:57;1.13;;;1.00;;
15383;SDS011;7790;53.022;12.968;2023-02-28T05:33:59;1.87;;;1.00;;
15383;SDS011;7790;53.022;12.968;2023-02-28T05:38:00;1.90;;;0.90;;
15383;SDS011;7790;53.022;12.968;2023-02-28T05:42:00;0.73;;;0.73;;
15383;SDS011;7790;53.022;12.968;2023-02-28T05:46:02;1.43;;;0.90;;
15383;SDS011;7790;53.022;12.968;2023-02-28T05:50:05;2.53;;;1.20;;
15383;SDS011;7790;53.022;12.968;2023-02-28T05:54:06;1.00;;;0.90;;
15383;SDS011;7790;53.022;12.968;2023-02-28T05:58:07;6.33;;;1.50;;
15383;SDS011;7790;53.022;12.968;2023-02-28T06:02:15;3.40;;;2.07;;
15383;SDS011;7790;53.022;12.968;2023-02-28T06:06:17;3.17;;;1.97;;
15383;SDS011;7790;53.022;12.968;2023-02-28T06:10:18;7.00;;;2.00;;
15383;SDS011;7790;53.022;12.968;2023-02-28T06:14:19;2.37;;;2.17;;
15383;SDS011;7790;53.022;12.968;2023-02-28T06:18:20;2.07;;;1.90;;
15383;SDS011;7790;53.022;12.968;2023-02-28T06:22:21;2.67;;;2.07;;
15383;SDS011;7790;53.022;12.968;2023-02-28T06:26:22;2.00;;;1.80;;
15383;SDS011;7790;53.022;12.968;2023-02-28T06:30:23;3.00;;;1.90;;
15383;SDS011;7790;53.022;12.968;2023-02-28T06:34:26;2.23;;;2.00;;
15383;SDS011;7790;53.022;12.968;2023-02-28T06:38:27;3.87;;;2.03;;
15383;SDS011;7790;53.022;12.968;2023-02-28T06:42:28;2.20;;;2.00;;
15383;SDS011;7790;53.022;12.968;2023-02-28T06:46:31;2.13;;;1.90;;
15383;SDS011;7790;53.022;12.968;2023-02-28T06:50:32;1.87;;;1.77;;
15383;SDS011;7790;53.022;12.968;2023-02-28T06:54:33;1.90;;;1.70;;
15383;SDS011;7790;53.022;12.968;2023-02-28T06:58:34;2.97;;;2.13;;
15383;SDS011;7790;53.022;12.968;2023-02-28T07:02:35;2.17;;;1.97;;
15383;SDS011;7790;53.022;12.968;2023-02-28T07:06:37;2.07;;;1.97;;
15383;SDS011;7790;53.022;12.968;2023-02-28T07:10:38;2.40;;;1.80;;
15383;SDS011;7790;53.022;12.968;2023-02-28T07:14:39;2.60;;;2.07;;
15383;SDS011;7790;53.022;12.968;2023-02-28T07:18:40;1.83;;;1.73;;
15383;SDS011;7790;53.022;12.968;2023-02-28T07:22:41;2.77;;;1.90;;
15383;SDS011;7790;53.022;12.968;2023-02-28T07:26:42;2.60;;;1.77;;
15383;SDS011;7790;53.022;12.968;2023-02-28T07:30:43;5.03;;;1.80;;
15383;SDS011;7790;53.022;12.968;2023-02-28T07:34:44;4.63;;;2.10;;
15383;SDS011;7790;53.022;12.968;2023-02-28T07:38:45;6.07;;;2.50;;
15383;SDS011;7790;53.022;12.968;2023-02-28T07:42:48;8.80;;;2.43;;
15383;SDS011;7790;53.022;12.968;2023-02-28T07:46:51;5.53;;;2.10;;
15383;SDS011;7790;53.022;12.968;2023-02-28T07:50:56;3.07;;;2.27;;
15383;SDS011;7790;53.022;12.968;2023-02-28T07:54:57;4.87;;;2.07;;
15383;SDS011;7790;53.022;12.968;2023-02-28T07:58:58;3.60;;;2.23;;
15383;SDS011;7790;53.022;12.968;2023-02-28T08:02:59;6.13;;;2.43;;
15383;SDS011;7790;53.022;12.968;2023-02-28T08:07:00;4.73;;;2.17;;
15383;SDS011;7790;53.022;12.968;2023-02-28T08:11:01;5.07;;;2.07;;
15383;SDS011;7790;53.022;12.968;2023-02-28T08:15:03;3.70;;;2.30;;
15383;SDS011;7790;53.022;12.968;2023-02-28T08:19:04;2.83;;;2.03;;
15383;SDS011;7790;53.022;12.968;2023-02-28T08:23:05;4.83;;;2.40;;
15383;SDS011;7790;53.022;12.968;2023-02-28T08:27:06;5.00;;;2.40;;
15383;SDS011;7790;53.022;12.968;2023-02-28T08:31:08;4.13;;;2.47;;
15383;SDS011;7790;53.022;12.968;2023-02-28T08:35:10;4.30;;;2.27;;
15383;SDS011;7790;53.022;12.968;2023-02-28T08:39:12;4.37;;;2.73;;
15383;SDS011;7790;53.022;12.968;2023-02-28T08:43:13;3.63;;;2.83;;
15383;SDS011;7790;53.022;12.968;2023-02-28T08:47:14;4.00;;;2.70;;
15383;SDS011;7790;53.022;12.968;2023-02-28T08:51:16;5.63;;;3.03;;
15383;SDS011;7790;53.022;12.968;2023-02-28T08:55:18;3.30;;;2.60;;
15383;SDS011;7790;53.022;12.968;2023-02-28T08:59:19;5.43;;;3.07;;
15383;SDS011;7790;53.022;12.968;2023-02-28T09:03:20;5.07;;;3.50;;
15383;SDS011;7790;53.022;12.968;2023-02-28T09:07:22;3.83;;;3.20;;
15383;SDS011;7790;53.022;12.968;2023-02-28T09:11:23;3.37;;;2.97;;
15383;SDS011;7790;53.022;12.968;2023-02-28T09:15:24;5.40;;;3.33;;
15383;SDS011;7790;53.022;12.968;2023-02-28T09:19:24;4.83;;;3.17;;
15383;SDS011;7790;53.022;12.968;2023-02-28T09:23:25;4.97;;;3.47;;
15383;SDS011;7790;53.022;12.968;2023-02-28T09:27:26;3.17;;;2.57;;
15383;SDS011;7790;53.022;12.968;2023-02-28T09:31:27;5.07;;;2.90;;
15383;SDS011;7790;53.022;12.968;2023-02-28T09:35:29;3.40;;;3.10;;
15383;SDS011;7790;53.022;12.968;2023-02-28T09:39:30;4.50;;;3.17;;
15383;SDS011;7790;53.022;12.968;2023-02-28T09:43:35;4.43;;;2.80;;
15383;SDS011;7790;53.022;12.968;2023-02-28T09:47:44;3.20;;;2.90;;
15383;SDS011;7790;53.022;12.968;2023-02-28T09:56:01;5.00;;;3.20;;
15383;SDS011;7790;53.022;12.968;2023-02-28T10:00:18;5.10;;;3.40;;
15383;SDS011;7790;53.022;12.968;2023-02-28T10:08:47;16.23;;;3.27;;
15383;SDS011;7790;53.022;12.968;2023-02-28T10:13:01;5.80;;;3.40;;
15383;SDS011;7790;53.022;12.968;2023-02-28T10:17:08;4.40;;;2.87;;
15383;SDS011;7790;53.022;12.968;2023-02-28T10:26:12;5.47;;;2.63;;
15383;SDS011;7790;53.022;12.968;2023-02-28T10:30:18;2.97;;;2.57;;
15383;SDS011;7790;53.022;12.968;2023-02-28T10:34:19;2.60;;;2.40;;
15383;SDS011;7790;53.022;12.968;2023-02-28T10:38:22;3.70;;;2.50;;
15383;SDS011;7790;53.022;12.968;2023-02-28T10:42:33;2.50;;;2.30;;
15383;SDS011;7790;53.022;12.968;2023-02-28T10:46:39;2.20;;;2.00;;
15383;SDS011;7790;53.022;12.968;2023-02-28T10:55:13;2.37;;;2.17;;
15383;SDS011;7790;53.022;12.968;2023-02-28T10:59:27;2.30;;;2.10;;
15383;SDS011;7790;53.022;12.968;2023-02-28T11:07:32;6.73;;;2.80;;
15383;SDS011;7790;53.022;12.968;2023-02-28T11:11:41;5.83;;;4.87;;
15383;SDS011;7790;53.022;12.968;2023-02-28T11:15:45;4.87;;;3.50;;
15383;SDS011;7790;53.022;12.968;2023-02-28T11:19:54;6.47;;;5.57;;
15383;SDS011;7790;53.022;12.968;2023-02-28T11:24:22;5.00;;;3.90;;
15383;SDS011;7790;53.022;12.968;2023-02-28T11:32:32;3.77;;;3.00;;
15383;SDS011;7790;53.022;12.968;2023-02-28T11:36:33;3.70;;;2.93;;
15383;SDS011;7790;53.022;12.968;2023-02-28T11:58:05;2.97;;;2.40;;
15383;SDS011;7790;53.022;12.968;2023-02-28T12:02:29;2.90;;;2.30;;
15383;SDS011;7790;53.022;12.968;2023-02-28T12:06:52;3.00;;;2.20;;
15383;SDS011;7790;53.022;12.968;2023-02-28T12:11:27;3.67;;;2.17;;
15383;SDS011;7790;53.022;12.968;2023-02-28T12:20:05;3.80;;;2.03;;
15383;SDS011;7790;53.022;12.968;2023-02-28T12:28:32;3.20;;;2.30;;
15383;SDS011;7790;53.022;12.968;2023-02-28T12:32:44;4.90;;;2.00;;
15383;SDS011;7790;53.022;12.968;2023-02-28T12:36:48;4.87;;;2.10;;
15383;SDS011;7790;53.022;12.968;2023-02-28T12:41:10;3.50;;;2.00;;
15383;SDS011;7790;53.022;12.968;2023-02-28T12:45:19;4.63;;;2.30;;
15383;SDS011;7790;53.022;12.968;2023-02-28T12:49:25;2.37;;;1.90;;
15383;SDS011;7790;53.022;12.968;2023-02-28T13:06:40;2.20;;;1.80;;
15383;SDS011;7790;53.022;12.968;2023-02-28T13:10:58;2.57;;;1.73;;
15383;SDS011;7790;53.022;12.968;2023-02-28T13:19:32;2.27;;;1.70;;
15383;SDS011;7790;53.022;12.968;2023-02-28T13:23:56;2.57;;;1.70;;
15383;SDS011;7790;53.022;12.968;2023-02-28T13:28:09;2.17;;;1.77;;
15383;SDS011;7790;53.022;12.968;2023-02-28T13:53:29;1.70;;;1.60;;
15383;SDS011;7790;53.022;12.968;2023-02-28T14:06:49;1.63;;;1.50;;
15383;SDS011;7790;53.022;12.968;2023-02-28T14:11:03;1.70;;;1.60;;
15383;SDS011;7790;53.022;12.968;2023-02-28T14:19:37;1.50;;;1.40;;
15383;SDS011;7790;53.022;12.968;2023-02-28T14:37:00;1.30;;;1.20;;
15383;SDS011;7790;53.022;12.968;2023-02-28T14:41:04;1.47;;;1.33;;
15383;SDS011;7790;53.022;12.968;2023-02-28T14:45:19;1.37;;;1.27;;
15383;SDS011;7790;53.022;12.968;2023-02-28T14:49:30;1.53;;;1.43;;
15383;SDS011;7790;53.022;12.968;2023-02-28T14:53:36;1.73;;;1.30;;
15383;SDS011;7790;53.022;12.968;2023-02-28T14:57:41;1.60;;;1.37;;
15383;SDS011;7790;53.022;12.968;2023-02-28T15:01:51;2.37;;;1.20;;
15383;SDS011;7790;53.022;12.968;2023-02-28T15:05:54;3.40;;;1.30;;
15383;SDS011;7790;53.022;12.968;2023-02-28T15:14:20;1.77;;;1.30;;
15383;SDS011;7790;53.022;12.968;2023-02-28T15:22:52;1.40;;;1.30;;
15383;SDS011;7790;53.022;12.968;2023-02-28T15:26:58;1.43;;;1.33;;
15383;SDS011;7790;53.022;12.968;2023-02-28T15:31:02;2.03;;;1.37;;
15383;SDS011;7790;53.022;12.968;2023-02-28T15:39:24;1.27;;;1.17;;
15383;SDS011;7790;53.022;12.968;2023-02-28T15:43:30;1.50;;;1.40;;
15383;SDS011;7790;53.022;12.968;2023-02-28T15:47:33;1.87;;;0.97;;
15383;SDS011;7790;53.022;12.968;2023-02-28T15:51:35;2.50;;;1.30;;
15383;SDS011;7790;53.022;12.968;2023-02-28T15:55:38;1.57;;;1.47;;
15383;SDS011;7790;53.022;12.968;2023-02-28T15:59:42;1.30;;;0.90;;
15383;SDS011;7790;53.022;12.968;2023-02-28T16:03:50;1.80;;;1.30;;
15383;SDS011;7790;53.022;12.968;2023-02-28T16:07:54;2.03;;;1.23;;
15383;SDS011;7790;53.022;12.968;2023-02-28T16:11:59;1.00;;;1.00;;
15383;SDS011;7790;53.022;12.968;2023-02-28T16:16:02;1.10;;;1.00;;
15383;SDS011;7790;53.022;12.968;2023-02-28T16:20:25;1.60;;;1.10;;
15383;SDS011;7790;53.022;12.968;2023-02-28T16:24:28;3.53;;;1.10;;
15383;SDS011;7790;53.022;12.968;2023-02-28T16:28:30;2.77;;;1.10;;
15383;SDS011;7790;53.022;12.968;2023-02-28T16:32:35;1.20;;;1.10;;
15383;SDS011;7790;53.022;12.968;2023-02-28T16:36:36;1.07;;;1.00;;
15383;SDS011;7790;53.022;12.968;2023-02-28T16:40:37;1.20;;;1.10;;
15383;SDS011;7790;53.022;12.968;2023-02-28T16:44:38;0.93;;;0.90;;
15383;SDS011;7790;53.022;12.968;2023-02-28T16:48:40;1.20;;;1.10;;
15383;SDS011;7790;53.022;12.968;2023-02-28T16:52:41;0.90;;;0.90;;
15383;SDS011;7790;53.022;12.968;2023-02-28T16:56:43;1.00;;;0.90;;
15383;SDS011;7790;53.022;12.968;2023-02-28T17:00:46;1.17;;;1.07;;
15383;SDS011;7790;53.022;12.968;2023-02-28T17:04:46;2.47;;;1.00;;
15383;SDS011;7790;53.022;12.968;2023-02-28T17:08:50;1.27;;;0.80;;
15383;SDS011;7790;53.022;12.968;2023-02-28T17:12:52;1.93;;;1.10;;
15383;SDS011;7790;53.022;12.968;2023-02-28T17:16:53;2.50;;;0.90;;
15383;SDS011;7790;53.022;12.968;2023-02-28T17:20:54;3.60;;;1.10;;
15383;SDS011;7790;53.022;12.968;2023-02-28T17:24:55;2.20;;;0.83;;
15383;SDS011;7790;53.022;12.968;2023-02-28T17:28:56;1.60;;;1.20;;
15383;SDS011;7790;53.022;12.968;2023-02-28T17:32:58;1.60;;;0.90;;
15383;SDS011;7790;53.022;12.968;2023-02-28T17:36:58;1.37;;;0.97;;
15383;SDS011;7790;53.022;12.968;2023-02-28T17:40:59;1.20;;;1.10;;
15383;SDS011;7790;53.022;12.968;2023-02-28T17:45:00;1.17;;;0.90;;
15383;SDS011;7790;53.022;12.968;2023-02-28T17:49:01;1.43;;;1.10;;
15383;SDS011;7790;53.022;12.968;2023-02-28T17:53:03;1.73;;;0.80;;
15383;SDS011;7790;53.022;12.968;2023-02-28T17:57:04;1.20;;;0.80;;
15383;SDS011;7790;53.022;12.968;2023-02-28T18:01:05;1.20;;;1.10;;
15383;SDS011;7790;53.022;12.968;2023-02-28T18:05:06;1.13;;;1.03;;
15383;SDS011;7790;53.022;12.968;2023-02-28T18:09:08;1.07;;;0.90;;
15383;SDS011;7790;53.022;12.968;2023-02-28T18:13:09;1.03;;;0.93;;
15383;SDS011;7790;53.022;12.968;2023-02-28T18:17:12;1.20;;;1.03;;
15383;SDS011;7790;53.022;12.968;2023-02-28T18:21:14;0.70;;;0.70;;
15383;SDS011;7790;53.022;12.968;2023-02-28T18:25:16;1.17;;;1.03;;
15383;SDS011;7790;53.022;12.968;2023-02-28T18:29:21;1.00;;;0.90;;
15383;SDS011;7790;53.022;12.968;2023-02-28T18:33:23;0.90;;;0.90;;
15383;SDS011;7790;53.022;12.968;2023-02-28T18:37:24;1.20;;;1.10;;
15383;SDS011;7790;53.022;12.968;2023-02-28T18:41:26;0.87;;;0.87;;
15383;SDS011;7790;53.022;12.968;2023-02-28T18:45:28;1.10;;;1.00;;
15383;SDS011;7790;53.022;12.968;2023-02-28T18:49:32;0.90;;;0.90;;
15383;SDS011;7790;53.022;12.968;2023-02-28T18:53:35;1.10;;;0.93;;
15383;SDS011;7790;53.022;12.968;2023-02-28T18:57:36;1.07;;;0.90;;
15383;SDS011;7790;53.022;12.968;2023-02-28T19:01:37;0.90;;;0.90;;
15383;SDS011;7790;53.022;12.968;2023-02-28T19:05:38;0.97;;;0.90;;
15383;SDS011;7790;53.022;12.968;2023-02-28T19:09:39;3.73;;;1.40;;
15383;SDS011;7790;53.022;12.968;2023-02-28T19:13:40;2.77;;;1.43;;
15383;SDS011;7790;53.022;12.968;2023-02-28T19:17:41;1.57;;;1.10;;
15383;SDS011;7790;53.022;12.968;2023-02-28T19:21:42;1.10;;;1.10;;
15383;SDS011;7790;53.022;12.968;2023-02-28T19:25:43;1.30;;;1.20;;
15383;SDS011;7790;53.022;12.968;2023-02-28T19:29:46;1.30;;;1.20;;
15383;SDS011;7790;53.022;12.968;2023-02-28T19:33:48;1.10;;;1.10;;
15383;SDS011;7790;53.022;12.968;2023-02-28T19:37:51;1.57;;;1.47;;
15383;SDS011;7790;53.022;12.968;2023-02-28T19:41:52;1.30;;;1.10;;
15383;SDS011;7790;53.022;12.968;2023-02-28T19:45:53;1.17;;;1.07;;
15383;SDS011;7790;53.022;12.968;2023-02-28T19:49:54;2.27;;;1.37;;
15383;SDS011;7790;53.022;12.968;2023-02-28T19:53:55;1.27;;;1.17;;
15383;SDS011;7790;53.022;12.968;2023-02-28T19:57:56;1.33;;;1.23;;
15383;SDS011;7790;53.022;12.968;2023-02-28T20:01:56;1.17;;;1.13;;
15383;SDS011;7790;53.022;12.968;2023-02-28T20:06:01;1.30;;;1.13;;
15383;SDS011;7790;53.022;12.968;2023-02-28T20:10:04;1.10;;;1.10;;
15383;SDS011;7790;53.022;12.968;2023-02-28T20:14:05;1.47;;;1.37;;
15383;SDS011;7790;53.022;12.968;2023-02-28T20:18:06;1.20;;;1.10;;
15383;SDS011;7790;53.022;12.968;2023-02-28T20:22:07;1.40;;;1.30;;
15383;SDS011;7790;53.022;12.968;2023-02-28T20:26:09;1.37;;;1.27;;
15383;SDS011;7790;53.022;12.968;2023-02-28T20:30:11;1.03;;;1.00;;
15383;SDS011;7790;53.022;12.968;2023-02-28T20:34:12;1.20;;;1.20;;
15383;SDS011;7790;53.022;12.968;2023-02-28T20:38:13;1.23;;;1.13;;
15383;SDS011;7790;53.022;12.968;2023-02-28T20:42:14;1.37;;;1.27;;
15383;SDS011;7790;53.022;12.968;2023-02-28T20:46:14;1.23;;;1.13;;
15383;SDS011;7790;53.022;12.968;2023-02-28T20:50:15;2.13;;;1.30;;
15383;SDS011;7790;53.022;12.968;2023-02-28T20:54:16;1.17;;;1.10;;
15383;SDS011;7790;53.022;12.968;2023-02-28T20:58:17;2.30;;;1.10;;
15383;SDS011;7790;53.022;12.968;2023-02-28T21:02:18;1.83;;;1.57;;
15383;SDS011;7790;53.022;12.968;2023-02-28T21:06:22;2.27;;;1.30;;
15383;SDS011;7790;53.022;12.968;2023-02-28T21:10:25;3.73;;;1.40;;
15383;SDS011;7790;53.022;12.968;2023-02-28T21:14:26;1.27;;;1.17;;
15383;SDS011;7790;53.022;12.968;2023-02-28T21:18:27;1.40;;;1.20;;
15383;SDS011;7790;53.022;12.968;2023-02-28T21:22:28;2.20;;;1.40;;
15383;SDS011;7790;53.022;12.968;2023-02-28T21:26:29;1.43;;;1.33;;
15383;SDS011;7790;53.022;12.968;2023-02-28T21:30:29;2.37;;;1.50;;
15383;SDS011;7790;53.022;12.968;2023-02-28T21:34:30;1.67;;;1.50;;
15383;SDS011;7790;53.022;12.968;2023-02-28T21:38:32;2.60;;;1.33;;
15383;SDS011;7790;53.022;12.968;2023-02-28T21:42:34;1.30;;;1.20;;
15383;SDS011;7790;53.022;12.968;2023-02-28T21:46:35;2.80;;;1.50;;
15383;SDS011;7790;53.022;12.968;2023-02-28T21:50:35;2.10;;;1.37;;
15383;SDS011;7790;53.022;12.968;2023-02-28T21:54:36;1.60;;;1.50;;
15383;SDS011;7790;53.022;12.968;2023-02-28T21:58:37;1.70;;;1.60;;
15383;SDS011;7790;53.022;12.968;2023-02-28T22:02:38;2.50;;;1.50;;
15383;SDS011;7790;53.022;12.968;2023-02-28T22:06:40;1.70;;;1.60;;
15383;SDS011;7790;53.022;12.968;2023-02-28T22:10:40;1.50;;;1.40;;
15383;SDS011;7790;53.022;12.968;2023-02-28T22:14:41;2.40;;;1.40;;
15383;SDS011;7790;53.022;12.968;2023-02-28T22:18:44;1.50;;;1.40;;
15383;SDS011;7790;53.022;12.968;2023-02-28T22:22:45;1.70;;;1.60;;
15383;SDS011;7790;53.022;12.968;2023-02-28T22:26:47;2.53;;;1.50;;
15383;SDS011;7790;53.022;12.968;2023-02-28T22:30:49;1.73;;;1.63;;
15383;SDS011;7790;53.022;12.968;2023-02-28T22:34:52;1.70;;;1.60;;
15383;SDS011;7790;53.022;12.968;2023-02-28T22:38:53;1.73;;;1.63;;
15383;SDS011;7790;53.022;12.968;2023-02-28T22:42:54;1.53;;;1.43;;
15383;SDS011;7790;53.022;12.968;2023-02-28T22:46:55;1.70;;;1.60;;
15383;SDS011;7790;53.022;12.968;2023-02-28T22:55:14;1.70;;;1.60;;
15383;SDS011;7790;53.022;12.968;2023-02-28T22:59:14;1.70;;;1.60;;
15383;SDS011;7790;53.022;12.968;2023-02-28T23:03:15;1.60;;;1.50;;
15383;SDS011;7790;53.022;12.968;2023-02-28T23:07:16;2.20;;;2.03;;
15383;SDS011;7790;53.022;12.968;2023-02-28T23:11:18;1.80;;;1.70;;
15383;SDS011;7790;53.022;12.968;2023-02-28T23:15:21;1.60;;;1.50;;
15383;SDS011;7790;53.022;12.968;2023-02-28T23:19:24;1.90;;;1.80;;
15383;SDS011;7790;53.022;12.968;2023-02-28T23:23:26;1.70;;;1.60;;
15383;SDS011;7790;53.022;12.968;2023-02-28T23:27:27;1.80;;;1.70;;
15383;SDS011;7790;53.022;12.968;2023-02-28T23:31:28;2.20;;;2.00;;
15383;SDS011;7790;53.022;12.968;2023-02-28T23:35:30;1.80;;;1.70;;
15383;SDS011;7790;53.022;12.968;2023-02-28T23:39:32;2.90;;;1.87;;
15383;SDS011;7790;53.022;12.968;2023-02-28T23:43:33;3.60;;;2.07;;
15383;SDS011;7790;53.022;12.968;2023-02-28T23:47:34;3.50;;;1.90;;
15383;SDS011;7790;53.022;12.968;2023-02-28T23:51:35;1.93;;;1.70;;
15383;SDS011;7790;53.022;12.968;2023-02-28T23:55:36;2.30;;;1.70;;
15383;SDS011;7790;53.022;12.968;2023-02-28T23:59:37;2.17;;;1.97;;
